Terminal Aerodrome Forecast
Issued by NWS Shreveport, LA

Home | Current Version | Previous Version | Text Only | Print | Product List | Glossary On
Versions: 1 2 3 4 5 6 7 8 9 10 11 12 13 14 15 16 17 18 19 20
000
FTUS44 KSHV 231100
TAFGGG
TAF
KGGG 231135Z 2312/2412 12009KT P6SM FEW009 OVC100
      TEMPO 2312/2313 6SM -RA BR BKN009 OVC100
     FM231400 20011KT P6SM FEW010 BKN110
     FM231800 22016G24KT P6SM SCT110
     FM240100 28018G28KT P6SM SCT250
     FM240600 29014G20KT P6SM SKC
     FM240900 29009KT P6SM SKC=

USA.gov is the U.S. government's official web portal to all federal, state and local government web resources and services.